sensor_id;sensor_type;location;lat;lon;timestamp;temperature;humidity
16823;DHT22;8528;49.976;11.858;2023-01-15T00:01:56;5.30;99.90
16823;DHT22;8528;49.976;11.858;2023-01-15T00:04:23;5.20;99.90
16823;DHT22;8528;49.976;11.858;2023-01-15T00:06:50;5.20;99.90
16823;DHT22;8528;49.976;11.858;2023-01-15T00:09:17;5.20;99.90
16823;DHT22;8528;49.976;11.858;2023-01-15T00:11:44;5.20;99.90
16823;DHT22;8528;49.976;11.858;2023-01-15T00:14:11;5.30;99.90
16823;DHT22;8528;49.976;11.858;2023-01-15T00:16:38;5.20;99.90
16823;DHT22;8528;49.976;11.858;2023-01-15T00:19:09;5.30;99.90
16823;DHT22;8528;49.976;11.858;2023-01-15T00:21:37;5.30;99.90
16823;DHT22;8528;49.976;11.858;2023-01-15T00:24:04;5.30;99.90
16823;DHT22;8528;49.976;11.858;2023-01-15T00:26:50;5.40;99.90
16823;DHT22;8528;49.976;11.858;2023-01-15T00:29:35;5.40;99.90
16823;DHT22;8528;49.976;11.858;2023-01-15T00:32:06;5.40;99.90
16823;DHT22;8528;49.976;11.858;2023-01-15T00:34:33;5.40;99.90
16823;DHT22;8528;49.976;11.858;2023-01-15T00:37:00;5.50;99.90
16823;DHT22;8528;49.976;11.858;2023-01-15T00:39:27;5.50;99.90
16823;DHT22;8528;49.976;11.858;2023-01-15T00:41:54;5.50;99.90
16823;DHT22;8528;49.976;11.858;2023-01-15T00:44:22;5.60;99.90
16823;DHT22;8528;49.976;11.858;2023-01-15T00:46:49;5.60;99.90
16823;DHT22;8528;49.976;11.858;2023-01-15T00:49:16;5.60;99.90
16823;DHT22;8528;49.976;11.858;2023-01-15T00:51:43;5.60;99.90
16823;DHT22;8528;49.976;11.858;2023-01-15T00:54:10;5.70;99.90
16823;DHT22;8528;49.976;11.858;2023-01-15T00:56:37;5.70;99.90
16823;DHT22;8528;49.976;11.858;2023-01-15T00:59:04;5.70;99.90
16823;DHT22;8528;49.976;11.858;2023-01-15T01:01:31;5.70;99.90
16823;DHT22;8528;49.976;11.858;2023-01-15T01:04:09;5.80;99.90
16823;DHT22;8528;49.976;11.858;2023-01-15T01:06:35;5.80;99.90
16823;DHT22;8528;49.976;11.858;2023-01-15T01:09:02;5.90;99.90
16823;DHT22;8528;49.976;11.858;2023-01-15T01:11:29;5.90;99.90
16823;DHT22;8528;49.976;11.858;2023-01-15T01:14:00;5.90;99.90
16823;DHT22;8528;49.976;11.858;2023-01-15T01:19:01;6.00;99.90
16823;DHT22;8528;49.976;11.858;2023-01-15T01:21:29;6.00;99.90
16823;DHT22;8528;49.976;11.858;2023-01-15T01:23:58;6.00;99.90
16823;DHT22;8528;49.976;11.858;2023-01-15T01:26:25;6.10;99.90
16823;DHT22;8528;49.976;11.858;2023-01-15T01:28:53;6.10;99.90
16823;DHT22;8528;49.976;11.858;2023-01-15T01:31:20;6.10;99.90
16823;DHT22;8528;49.976;11.858;2023-01-15T01:33:53;6.20;99.90
16823;DHT22;8528;49.976;11.858;2023-01-15T01:36:28;6.20;99.90
16823;DHT22;8528;49.976;11.858;2023-01-15T01:38:56;6.20;99.90
16823;DHT22;8528;49.976;11.858;2023-01-15T01:41:24;6.20;99.90
16823;DHT22;8528;49.976;11.858;2023-01-15T01:44:03;6.30;99.90
16823;DHT22;8528;49.976;11.858;2023-01-15T01:46:33;6.20;99.90
16823;DHT22;8528;49.976;11.858;2023-01-15T01:49:07;6.30;99.90
16823;DHT22;8528;49.976;11.858;2023-01-15T01:51:39;6.30;99.90
16823;DHT22;8528;49.976;11.858;2023-01-15T01:54:06;6.30;99.90
16823;DHT22;8528;49.976;11.858;2023-01-15T01:56:56;6.30;99.90
16823;DHT22;8528;49.976;11.858;2023-01-15T01:59:24;6.30;99.90
16823;DHT22;8528;49.976;11.858;2023-01-15T02:01:51;6.30;99.90
16823;DHT22;8528;49.976;11.858;2023-01-15T02:04:20;6.30;99.90
16823;DHT22;8528;49.976;11.858;2023-01-15T02:06:50;6.30;99.90
16823;DHT22;8528;49.976;11.858;2023-01-15T02:09:17;6.30;99.90
16823;DHT22;8528;49.976;11.858;2023-01-15T02:11:43;6.30;99.90
16823;DHT22;8528;49.976;11.858;2023-01-15T02:14:21;6.20;99.90
16823;DHT22;8528;49.976;11.858;2023-01-15T02:17:04;6.30;99.90
16823;DHT22;8528;49.976;11.858;2023-01-15T02:19:50;6.20;99.90
16823;DHT22;8528;49.976;11.858;2023-01-15T02:27:34;6.20;99.90
16823;DHT22;8528;49.976;11.858;2023-01-15T02:32:43;6.20;99.90
16823;DHT22;8528;49.976;11.858;2023-01-15T02:35:47;6.20;99.90
16823;DHT22;8528;49.976;11.858;2023-01-15T02:38:20;6.30;99.90
16823;DHT22;8528;49.976;11.858;2023-01-15T02:40:57;6.30;99.90
16823;DHT22;8528;49.976;11.858;2023-01-15T02:43:26;6.30;99.90
16823;DHT22;8528;49.976;11.858;2023-01-15T02:45:57;6.30;99.90
16823;DHT22;8528;49.976;11.858;2023-01-15T02:48:27;6.30;99.90
16823;DHT22;8528;49.976;11.858;2023-01-15T02:51:01;6.30;99.90
16823;DHT22;8528;49.976;11.858;2023-01-15T02:53:30;6.30;99.90
16823;DHT22;8528;49.976;11.858;2023-01-15T02:56:02;6.40;99.90
16823;DHT22;8528;49.976;11.858;2023-01-15T02:58:35;6.30;99.90
16823;DHT22;8528;49.976;11.858;2023-01-15T03:01:10;6.30;99.90
16823;DHT22;8528;49.976;11.858;2023-01-15T03:03:54;6.40;99.90
16823;DHT22;8528;49.976;11.858;2023-01-15T03:06:43;6.40;99.90
16823;DHT22;8528;49.976;11.858;2023-01-15T03:09:13;6.40;99.90
16823;DHT22;8528;49.976;11.858;2023-01-15T03:11:46;6.40;99.90
16823;DHT22;8528;49.976;11.858;2023-01-15T03:14:19;6.40;99.90
16823;DHT22;8528;49.976;11.858;2023-01-15T03:16:54;6.50;99.90
16823;DHT22;8528;49.976;11.858;2023-01-15T03:19:32;6.50;99.90
16823;DHT22;8528;49.976;11.858;2023-01-15T03:22:11;6.50;99.90
16823;DHT22;8528;49.976;11.858;2023-01-15T03:24:48;6.50;99.90
16823;DHT22;8528;49.976;11.858;2023-01-15T03:27:16;6.50;99.90
16823;DHT22;8528;49.976;11.858;2023-01-15T03:29:49;6.50;99.90
16823;DHT22;8528;49.976;11.858;2023-01-15T03:32:18;6.50;99.90
16823;DHT22;8528;49.976;11.858;2023-01-15T03:34:50;6.50;99.90
16823;DHT22;8528;49.976;11.858;2023-01-15T03:40:37;6.50;99.90
16823;DHT22;8528;49.976;11.858;2023-01-15T03:43:12;6.50;99.90
16823;DHT22;8528;49.976;11.858;2023-01-15T03:46:03;6.50;99.90
16823;DHT22;8528;49.976;11.858;2023-01-15T03:48:41;6.60;99.90
16823;DHT22;8528;49.976;11.858;2023-01-15T03:51:56;6.60;99.90
16823;DHT22;8528;49.976;11.858;2023-01-15T03:54:23;6.60;99.90
16823;DHT22;8528;49.976;11.858;2023-01-15T03:57:17;6.60;99.90
16823;DHT22;8528;49.976;11.858;2023-01-15T03:59:59;6.60;99.90
16823;DHT22;8528;49.976;11.858;2023-01-15T04:02:29;6.60;99.90
16823;DHT22;8528;49.976;11.858;2023-01-15T04:04:57;6.60;99.90
16823;DHT22;8528;49.976;11.858;2023-01-15T04:07:25;6.60;99.90
16823;DHT22;8528;49.976;11.858;2023-01-15T04:09:53;6.60;99.90
16823;DHT22;8528;49.976;11.858;2023-01-15T04:12:19;6.60;99.90
16823;DHT22;8528;49.976;11.858;2023-01-15T04:14:47;6.60;99.90
16823;DHT22;8528;49.976;11.858;2023-01-15T04:17:13;6.60;99.90
16823;DHT22;8528;49.976;11.858;2023-01-15T04:19:40;6.60;99.90
16823;DHT22;8528;49.976;11.858;2023-01-15T04:22:10;6.60;99.90
16823;DHT22;8528;49.976;11.858;2023-01-15T04:24:37;6.60;99.90
16823;DHT22;8528;49.976;11.858;2023-01-15T04:27:04;6.60;99.90
16823;DHT22;8528;49.976;11.858;2023-01-15T04:29:31;6.60;99.90
16823;DHT22;8528;49.976;11.858;2023-01-15T04:31:57;6.70;99.90
16823;DHT22;8528;49.976;11.858;2023-01-15T04:34:26;6.60;99.90
16823;DHT22;8528;49.976;11.858;2023-01-15T04:36:54;6.70;99.90
16823;DHT22;8528;49.976;11.858;2023-01-15T04:39:22;6.60;99.90
16823;DHT22;8528;49.976;11.858;2023-01-15T04:41:49;6.60;99.90
16823;DHT22;8528;49.976;11.858;2023-01-15T04:44:35;6.50;99.90
16823;DHT22;8528;49.976;11.858;2023-01-15T04:47:02;6.50;99.90
16823;DHT22;8528;49.976;11.858;2023-01-15T04:49:29;6.50;99.90
16823;DHT22;8528;49.976;11.858;2023-01-15T04:51:56;6.50;99.90
16823;DHT22;8528;49.976;11.858;2023-01-15T04:54:23;6.50;99.90
16823;DHT22;8528;49.976;11.858;2023-01-15T04:56:52;6.50;99.90
16823;DHT22;8528;49.976;11.858;2023-01-15T04:59:22;6.60;99.90
16823;DHT22;8528;49.976;11.858;2023-01-15T05:01:50;6.50;99.90
16823;DHT22;8528;49.976;11.858;2023-01-15T05:04:31;6.60;99.90
16823;DHT22;8528;49.976;11.858;2023-01-15T05:07:00;6.50;99.90
16823;DHT22;8528;49.976;11.858;2023-01-15T05:09:29;6.50;99.90
16823;DHT22;8528;49.976;11.858;2023-01-15T05:11:56;6.50;99.90
16823;DHT22;8528;49.976;11.858;2023-01-15T05:14:23;6.50;99.90
16823;DHT22;8528;49.976;11.858;2023-01-15T05:16:50;6.50;99.90
16823;DHT22;8528;49.976;11.858;2023-01-15T05:19:17;6.50;99.90
16823;DHT22;8528;49.976;11.858;2023-01-15T05:21:44;6.60;99.90
16823;DHT22;8528;49.976;11.858;2023-01-15T05:24:16;6.60;99.90
16823;DHT22;8528;49.976;11.858;2023-01-15T05:26:43;6.50;99.90
16823;DHT22;8528;49.976;11.858;2023-01-15T05:29:11;6.50;99.90
16823;DHT22;8528;49.976;11.858;2023-01-15T05:31:38;6.60;99.90
16823;DHT22;8528;49.976;11.858;2023-01-15T05:34:04;6.60;99.90
16823;DHT22;8528;49.976;11.858;2023-01-15T05:36:31;6.60;99.90
16823;DHT22;8528;49.976;11.858;2023-01-15T05:38:58;6.60;99.90
16823;DHT22;8528;49.976;11.858;2023-01-15T05:41:28;6.60;99.90
16823;DHT22;8528;49.976;11.858;2023-01-15T05:44:23;6.60;99.90
16823;DHT22;8528;49.976;11.858;2023-01-15T05:46:51;6.70;99.90
16823;DHT22;8528;49.976;11.858;2023-01-15T05:49:21;6.70;99.90
16823;DHT22;8528;49.976;11.858;2023-01-15T05:51:49;6.70;99.90
16823;DHT22;8528;49.976;11.858;2023-01-15T05:54:19;6.70;99.90
16823;DHT22;8528;49.976;11.858;2023-01-15T05:56:46;6.70;99.90
16823;DHT22;8528;49.976;11.858;2023-01-15T05:59:16;6.80;99.90
16823;DHT22;8528;49.976;11.858;2023-01-15T06:01:44;6.80;99.90
16823;DHT22;8528;49.976;11.858;2023-01-15T06:04:12;6.80;99.90
16823;DHT22;8528;49.976;11.858;2023-01-15T06:06:40;6.80;99.90
16823;DHT22;8528;49.976;11.858;2023-01-15T06:09:08;6.80;99.90
16823;DHT22;8528;49.976;11.858;2023-01-15T06:11:35;6.80;99.90
16823;DHT22;8528;49.976;11.858;2023-01-15T06:14:02;6.70;99.90
16823;DHT22;8528;49.976;11.858;2023-01-15T06:16:29;6.70;99.90
16823;DHT22;8528;49.976;11.858;2023-01-15T06:19:00;6.70;99.90
16823;DHT22;8528;49.976;11.858;2023-01-15T06:21:27;6.70;99.90
16823;DHT22;8528;49.976;11.858;2023-01-15T06:23:54;6.70;99.90
16823;DHT22;8528;49.976;11.858;2023-01-15T06:26:21;6.70;99.90
16823;DHT22;8528;49.976;11.858;2023-01-15T06:28:48;6.70;99.90
16823;DHT22;8528;49.976;11.858;2023-01-15T06:31:18;6.60;99.90
16823;DHT22;8528;49.976;11.858;2023-01-15T06:33:45;6.60;99.90
16823;DHT22;8528;49.976;11.858;2023-01-15T06:36:14;6.50;99.90
16823;DHT22;8528;49.976;11.858;2023-01-15T06:38:43;6.50;99.90
16823;DHT22;8528;49.976;11.858;2023-01-15T06:41:15;6.50;99.90
16823;DHT22;8528;49.976;11.858;2023-01-15T06:44:00;6.60;99.90
16823;DHT22;8528;49.976;11.858;2023-01-15T06:46:47;6.60;99.90
16823;DHT22;8528;49.976;11.858;2023-01-15T06:49:35;6.60;99.90
16823;DHT22;8528;49.976;11.858;2023-01-15T06:52:03;6.60;99.90
16823;DHT22;8528;49.976;11.858;2023-01-15T06:54:31;6.70;99.90
16823;DHT22;8528;49.976;11.858;2023-01-15T06:56:58;6.60;99.90
16823;DHT22;8528;49.976;11.858;2023-01-15T06:59:25;6.60;99.90
16823;DHT22;8528;49.976;11.858;2023-01-15T07:01:57;6.30;99.90
16823;DHT22;8528;49.976;11.858;2023-01-15T07:04:25;6.10;99.90
16823;DHT22;8528;49.976;11.858;2023-01-15T07:06:53;6.00;99.90
16823;DHT22;8528;49.976;11.858;2023-01-15T07:09:19;5.90;99.90
16823;DHT22;8528;49.976;11.858;2023-01-15T07:11:46;5.80;99.90
16823;DHT22;8528;49.976;11.858;2023-01-15T07:14:21;5.80;99.90
16823;DHT22;8528;49.976;11.858;2023-01-15T07:16:49;5.70;99.90
16823;DHT22;8528;49.976;11.858;2023-01-15T07:19:16;5.70;99.90
16823;DHT22;8528;49.976;11.858;2023-01-15T07:21:45;5.70;99.90
16823;DHT22;8528;49.976;11.858;2023-01-15T07:24:12;5.70;99.90
16823;DHT22;8528;49.976;11.858;2023-01-15T07:26:40;5.60;99.90
16823;DHT22;8528;49.976;11.858;2023-01-15T07:29:08;5.60;99.90
16823;DHT22;8528;49.976;11.858;2023-01-15T07:31:35;5.60;99.90
16823;DHT22;8528;49.976;11.858;2023-01-15T07:34:02;5.50;99.90
16823;DHT22;8528;49.976;11.858;2023-01-15T07:36:29;5.60;99.90
16823;DHT22;8528;49.976;11.858;2023-01-15T07:38:56;5.50;99.90
16823;DHT22;8528;49.976;11.858;2023-01-15T07:41:23;5.50;99.90
16823;DHT22;8528;49.976;11.858;2023-01-15T07:44:10;5.50;99.90
16823;DHT22;8528;49.976;11.858;2023-01-15T07:46:55;5.50;99.90
16823;DHT22;8528;49.976;11.858;2023-01-15T07:49:44;5.50;99.90
16823;DHT22;8528;49.976;11.858;2023-01-15T07:52:19;5.50;99.90
16823;DHT22;8528;49.976;11.858;2023-01-15T07:54:48;5.50;99.90
16823;DHT22;8528;49.976;11.858;2023-01-15T07:57:17;5.60;99.90
16823;DHT22;8528;49.976;11.858;2023-01-15T07:59:45;5.60;99.90
16823;DHT22;8528;49.976;11.858;2023-01-15T08:02:12;5.60;99.90
16823;DHT22;8528;49.976;11.858;2023-01-15T08:04:39;5.60;99.90
16823;DHT22;8528;49.976;11.858;2023-01-15T08:07:06;5.60;99.90
16823;DHT22;8528;49.976;11.858;2023-01-15T08:09:34;5.60;99.90
16823;DHT22;8528;49.976;11.858;2023-01-15T08:12:02;5.50;99.90
16823;DHT22;8528;49.976;11.858;2023-01-15T08:14:47;5.50;99.90
16823;DHT22;8528;49.976;11.858;2023-01-15T08:17:34;5.50;99.90
16823;DHT22;8528;49.976;11.858;2023-01-15T08:20:03;5.50;99.90
16823;DHT22;8528;49.976;11.858;2023-01-15T08:22:30;5.40;99.90
16823;DHT22;8528;49.976;11.858;2023-01-15T08:25:06;5.40;99.90
16823;DHT22;8528;49.976;11.858;2023-01-15T08:27:33;5.30;99.90
16823;DHT22;8528;49.976;11.858;2023-01-15T08:29:59;5.20;99.90
16823;DHT22;8528;49.976;11.858;2023-01-15T08:32:26;5.20;99.90
16823;DHT22;8528;49.976;11.858;2023-01-15T08:34:53;5.20;99.90
16823;DHT22;8528;49.976;11.858;2023-01-15T08:37:20;5.20;99.90
16823;DHT22;8528;49.976;11.858;2023-01-15T08:39:48;5.20;99.90
16823;DHT22;8528;49.976;11.858;2023-01-15T08:42:20;5.20;99.90
16823;DHT22;8528;49.976;11.858;2023-01-15T08:44:47;5.20;99.90
16823;DHT22;8528;49.976;11.858;2023-01-15T08:47:15;5.10;99.90
16823;DHT22;8528;49.976;11.858;2023-01-15T08:49:47;5.00;99.90
16823;DHT22;8528;49.976;11.858;2023-01-15T08:52:14;5.00;99.90
16823;DHT22;8528;49.976;11.858;2023-01-15T08:54:41;4.80;99.90
16823;DHT22;8528;49.976;11.858;2023-01-15T08:57:09;4.70;99.90
16823;DHT22;8528;49.976;11.858;2023-01-15T08:59:37;4.70;99.90
16823;DHT22;8528;49.976;11.858;2023-01-15T09:02:04;4.60;99.90
16823;DHT22;8528;49.976;11.858;2023-01-15T09:04:31;4.60;99.90
16823;DHT22;8528;49.976;11.858;2023-01-15T09:06:57;4.60;99.90
16823;DHT22;8528;49.976;11.858;2023-01-15T09:09:24;4.60;99.90
16823;DHT22;8528;49.976;11.858;2023-01-15T09:11:51;4.50;99.90
16823;DHT22;8528;49.976;11.858;2023-01-15T09:14:17;4.40;99.90
16823;DHT22;8528;49.976;11.858;2023-01-15T09:17:04;4.40;99.90
16823;DHT22;8528;49.976;11.858;2023-01-15T09:22:36;4.20;99.90
16823;DHT22;8528;49.976;11.858;2023-01-15T09:25:03;4.20;99.90
16823;DHT22;8528;49.976;11.858;2023-01-15T09:27:30;4.10;99.90
16823;DHT22;8528;49.976;11.858;2023-01-15T09:29:59;4.10;99.90
16823;DHT22;8528;49.976;11.858;2023-01-15T09:32:26;4.10;99.90
16823;DHT22;8528;49.976;11.858;2023-01-15T09:34:53;4.20;99.90
16823;DHT22;8528;49.976;11.858;2023-01-15T09:37:19;4.20;99.90
16823;DHT22;8528;49.976;11.858;2023-01-15T09:39:46;4.20;99.90
16823;DHT22;8528;49.976;11.858;2023-01-15T09:53:59;4.20;99.90
16823;DHT22;8528;49.976;11.858;2023-01-15T09:56:29;4.20;99.90
16823;DHT22;8528;49.976;11.858;2023-01-15T09:59:05;4.30;99.90
16823;DHT22;8528;49.976;11.858;2023-01-15T10:01:41;4.30;99.90
16823;DHT22;8528;49.976;11.858;2023-01-15T10:04:33;4.40;99.90
16823;DHT22;8528;49.976;11.858;2023-01-15T10:07:45;4.40;99.90
16823;DHT22;8528;49.976;11.858;2023-01-15T10:10:18;4.30;99.90
16823;DHT22;8528;49.976;11.858;2023-01-15T10:12:46;4.30;99.90
16823;DHT22;8528;49.976;11.858;2023-01-15T10:15:23;4.30;99.90
16823;DHT22;8528;49.976;11.858;2023-01-15T10:17:52;4.30;99.90
16823;DHT22;8528;49.976;11.858;2023-01-15T10:20:32;4.30;99.90
16823;DHT22;8528;49.976;11.858;2023-01-15T10:28:58;4.20;99.90
16823;DHT22;8528;49.976;11.858;2023-01-15T10:32:01;4.30;99.90
16823;DHT22;8528;49.976;11.858;2023-01-15T10:37:34;4.40;99.90
16823;DHT22;8528;49.976;11.858;2023-01-15T10:46:27;4.50;99.90
16823;DHT22;8528;49.976;11.858;2023-01-15T10:49:11;4.30;99.90
16823;DHT22;8528;49.976;11.858;2023-01-15T10:51:54;4.30;99.90
16823;DHT22;8528;49.976;11.858;2023-01-15T10:54:31;4.30;99.90
16823;DHT22;8528;49.976;11.858;2023-01-15T11:02:37;4.20;99.90
16823;DHT22;8528;49.976;11.858;2023-01-15T11:05:10;4.20;99.90
16823;DHT22;8528;49.976;11.858;2023-01-15T11:07:40;4.20;99.90
16823;DHT22;8528;49.976;11.858;2023-01-15T11:10:28;4.20;99.90
16823;DHT22;8528;49.976;11.858;2023-01-15T11:12:58;4.10;99.90
16823;DHT22;8528;49.976;11.858;2023-01-15T11:16:02;4.10;99.90
16823;DHT22;8528;49.976;11.858;2023-01-15T11:18:54;4.10;99.90
16823;DHT22;8528;49.976;11.858;2023-01-15T11:21:40;4.00;99.90
16823;DHT22;8528;49.976;11.858;2023-01-15T11:24:15;4.00;99.90
16823;DHT22;8528;49.976;11.858;2023-01-15T11:26:47;4.00;99.90
16823;DHT22;8528;49.976;11.858;2023-01-15T11:29:27;3.90;99.90
16823;DHT22;8528;49.976;11.858;2023-01-15T11:31:55;4.00;99.90
16823;DHT22;8528;49.976;11.858;2023-01-15T11:34:37;4.00;99.90
16823;DHT22;8528;49.976;11.858;2023-01-15T11:37:05;4.00;99.90
16823;DHT22;8528;49.976;11.858;2023-01-15T11:39:32;4.00;99.90
16823;DHT22;8528;49.976;11.858;2023-01-15T11:42:01;4.00;99.90
16823;DHT22;8528;49.976;11.858;2023-01-15T11:44:57;3.90;99.90
16823;DHT22;8528;49.976;11.858;2023-01-15T11:47:50;3.80;99.90
16823;DHT22;8528;49.976;11.858;2023-01-15T11:50:46;3.80;99.90
16823;DHT22;8528;49.976;11.858;2023-01-15T11:53:20;3.80;99.90
16823;DHT22;8528;49.976;11.858;2023-01-15T11:55:54;3.80;99.90
16823;DHT22;8528;49.976;11.858;2023-01-15T11:58:21;3.60;99.90
16823;DHT22;8528;49.976;11.858;2023-01-15T12:00:50;3.60;99.90
16823;DHT22;8528;49.976;11.858;2023-01-15T12:03:25;3.50;99.90
16823;DHT22;8528;49.976;11.858;2023-01-15T12:05:57;3.40;99.90
16823;DHT22;8528;49.976;11.858;2023-01-15T12:32:42;3.00;99.90
16823;DHT22;8528;49.976;11.858;2023-01-15T12:38:03;3.00;99.90
16823;DHT22;8528;49.976;11.858;2023-01-15T12:40:48;3.00;99.90
16823;DHT22;8528;49.976;11.858;2023-01-15T12:43:24;3.00;99.90
16823;DHT22;8528;49.976;11.858;2023-01-15T12:46:37;3.00;99.90
16823;DHT22;8528;49.976;11.858;2023-01-15T12:49:23;2.90;99.90
16823;DHT22;8528;49.976;11.858;2023-01-15T12:52:18;2.80;99.90
16823;DHT22;8528;49.976;11.858;2023-01-15T12:58:12;2.70;99.90
16823;DHT22;8528;49.976;11.858;2023-01-15T13:00:43;2.60;99.90
16823;DHT22;8528;49.976;11.858;2023-01-15T13:03:29;2.50;99.90
16823;DHT22;8528;49.976;11.858;2023-01-15T13:06:01;2.40;99.90
16823;DHT22;8528;49.976;11.858;2023-01-15T13:11:18;2.40;99.90
16823;DHT22;8528;49.976;11.858;2023-01-15T13:13:46;2.30;99.90
16823;DHT22;8528;49.976;11.858;2023-01-15T13:21:50;2.20;99.90
16823;DHT22;8528;49.976;11.858;2023-01-15T13:32:39;2.10;99.90
16823;DHT22;8528;49.976;11.858;2023-01-15T13:35:26;2.10;99.90
16823;DHT22;8528;49.976;11.858;2023-01-15T13:37:56;2.10;99.90
16823;DHT22;8528;49.976;11.858;2023-01-15T13:40:38;2.00;99.90
16823;DHT22;8528;49.976;11.858;2023-01-15T13:43:07;2.10;99.90
16823;DHT22;8528;49.976;11.858;2023-01-15T13:45:40;2.10;99.90
16823;DHT22;8528;49.976;11.858;2023-01-15T13:48:14;2.10;99.90
16823;DHT22;8528;49.976;11.858;2023-01-15T13:50:50;2.10;99.90
16823;DHT22;8528;49.976;11.858;2023-01-15T13:56:11;2.10;99.90
16823;DHT22;8528;49.976;11.858;2023-01-15T13:58:55;2.10;99.90
16823;DHT22;8528;49.976;11.858;2023-01-15T14:01:25;2.10;99.90
16823;DHT22;8528;49.976;11.858;2023-01-15T14:06:44;2.00;99.90
16823;DHT22;8528;49.976;11.858;2023-01-15T14:23:12;1.90;99.90
16823;DHT22;8528;49.976;11.858;2023-01-15T14:34:24;1.90;99.90
16823;DHT22;8528;49.976;11.858;2023-01-15T14:36:57;2.00;99.90
16823;DHT22;8528;49.976;11.858;2023-01-15T14:39:48;2.00;99.90
16823;DHT22;8528;49.976;11.858;2023-01-15T14:45:20;2.00;99.90
16823;DHT22;8528;49.976;11.858;2023-01-15T14:47:50;1.90;99.90
16823;DHT22;8528;49.976;11.858;2023-01-15T14:55:49;1.90;99.90
16823;DHT22;8528;49.976;11.858;2023-01-15T15:01:14;1.90;99.90
16823;DHT22;8528;49.976;11.858;2023-01-15T15:03:58;2.00;99.90
16823;DHT22;8528;49.976;11.858;2023-01-15T15:06:27;2.00;99.90
16823;DHT22;8528;49.976;11.858;2023-01-15T15:09:00;2.00;99.90
16823;DHT22;8528;49.976;11.858;2023-01-15T15:11:42;2.00;99.90
16823;DHT22;8528;49.976;11.858;2023-01-15T15:14:29;2.00;99.90
16823;DHT22;8528;49.976;11.858;2023-01-15T15:16:59;2.00;99.90
16823;DHT22;8528;49.976;11.858;2023-01-15T15:19:37;2.00;99.90
16823;DHT22;8528;49.976;11.858;2023-01-15T15:22:07;1.90;99.90
16823;DHT22;8528;49.976;11.858;2023-01-15T15:24:46;1.90;99.90
16823;DHT22;8528;49.976;11.858;2023-01-15T15:27:22;1.90;99.90
16823;DHT22;8528;49.976;11.858;2023-01-15T15:29:49;1.90;99.90
16823;DHT22;8528;49.976;11.858;2023-01-15T15:32:23;1.90;99.90
16823;DHT22;8528;49.976;11.858;2023-01-15T15:38:02;1.90;99.90
16823;DHT22;8528;49.976;11.858;2023-01-15T15:40:36;1.90;99.90
16823;DHT22;8528;49.976;11.858;2023-01-15T15:43:17;1.90;99.90
16823;DHT22;8528;49.976;11.858;2023-01-15T15:46:04;2.00;99.90
16823;DHT22;8528;49.976;11.858;2023-01-15T15:48:56;2.00;99.90
16823;DHT22;8528;49.976;11.858;2023-01-15T15:51:33;2.00;99.90
16823;DHT22;8528;49.976;11.858;2023-01-15T15:54:26;2.00;99.90
16823;DHT22;8528;49.976;11.858;2023-01-15T15:57:02;2.00;99.90
16823;DHT22;8528;49.976;11.858;2023-01-15T15:59:35;2.00;99.90
16823;DHT22;8528;49.976;11.858;2023-01-15T16:02:15;2.00;99.90
16823;DHT22;8528;49.976;11.858;2023-01-15T16:04:49;1.90;99.90
16823;DHT22;8528;49.976;11.858;2023-01-15T16:07:26;1.90;99.90
16823;DHT22;8528;49.976;11.858;2023-01-15T16:09:57;1.90;99.90
16823;DHT22;8528;49.976;11.858;2023-01-15T16:12:28;1.90;99.90
16823;DHT22;8528;49.976;11.858;2023-01-15T16:14:56;1.90;99.90
16823;DHT22;8528;49.976;11.858;2023-01-15T16:17:24;1.90;99.90
16823;DHT22;8528;49.976;11.858;2023-01-15T16:19:54;2.00;99.90
16823;DHT22;8528;49.976;11.858;2023-01-15T16:22:21;1.90;99.90
16823;DHT22;8528;49.976;11.858;2023-01-15T16:24:56;1.90;99.90
16823;DHT22;8528;49.976;11.858;2023-01-15T16:27:31;1.90;99.90
16823;DHT22;8528;49.976;11.858;2023-01-15T16:30:01;1.90;99.90
16823;DHT22;8528;49.976;11.858;2023-01-15T16:32:30;1.80;99.90
16823;DHT22;8528;49.976;11.858;2023-01-15T16:35:20;1.80;99.90
16823;DHT22;8528;49.976;11.858;2023-01-15T16:37:59;1.80;99.90
16823;DHT22;8528;49.976;11.858;2023-01-15T16:40:33;1.90;99.90
16823;DHT22;8528;49.976;11.858;2023-01-15T16:43:14;1.80;99.90
16823;DHT22;8528;49.976;11.858;2023-01-15T16:48:34;1.80;99.90
16823;DHT22;8528;49.976;11.858;2023-01-15T16:51:26;1.90;99.90
16823;DHT22;8528;49.976;11.858;2023-01-15T16:53:53;1.90;99.90
16823;DHT22;8528;49.976;11.858;2023-01-15T16:59:14;1.90;99.90
16823;DHT22;8528;49.976;11.858;2023-01-15T17:01:44;1.90;99.90
16823;DHT22;8528;49.976;11.858;2023-01-15T17:04:28;1.90;99.90
16823;DHT22;8528;49.976;11.858;2023-01-15T17:07:01;1.90;99.90
16823;DHT22;8528;49.976;11.858;2023-01-15T17:09:32;1.90;99.90
16823;DHT22;8528;49.976;11.858;2023-01-15T17:12:08;1.90;99.90
16823;DHT22;8528;49.976;11.858;2023-01-15T17:14:41;1.90;99.90
16823;DHT22;8528;49.976;11.858;2023-01-15T17:19:40;1.90;99.90
16823;DHT22;8528;49.976;11.858;2023-01-15T17:22:24;1.90;99.90
16823;DHT22;8528;49.976;11.858;2023-01-15T17:24:59;1.90;99.90
16823;DHT22;8528;49.976;11.858;2023-01-15T17:27:28;2.00;99.90
16823;DHT22;8528;49.976;11.858;2023-01-15T17:29:55;2.00;99.90
16823;DHT22;8528;49.976;11.858;2023-01-15T17:32:33;2.00;99.90
16823;DHT22;8528;49.976;11.858;2023-01-15T17:35:23;2.00;99.90
16823;DHT22;8528;49.976;11.858;2023-01-15T17:37:50;2.00;99.90
16823;DHT22;8528;49.976;11.858;2023-01-15T17:40:17;2.10;99.90
16823;DHT22;8528;49.976;11.858;2023-01-15T17:42:44;2.10;99.90
16823;DHT22;8528;49.976;11.858;2023-01-15T17:45:20;2.10;99.90
16823;DHT22;8528;49.976;11.858;2023-01-15T17:47:47;2.10;99.90
16823;DHT22;8528;49.976;11.858;2023-01-15T17:50:15;2.10;99.90
16823;DHT22;8528;49.976;11.858;2023-01-15T17:52:43;2.10;99.90
16823;DHT22;8528;49.976;11.858;2023-01-15T17:55:15;2.20;99.90
16823;DHT22;8528;49.976;11.858;2023-01-15T17:58:02;2.20;99.90
16823;DHT22;8528;49.976;11.858;2023-01-15T18:00:48;2.10;99.90
16823;DHT22;8528;49.976;11.858;2023-01-15T18:03:34;2.10;99.90
16823;DHT22;8528;49.976;11.858;2023-01-15T18:06:20;2.10;99.90
16823;DHT22;8528;49.976;11.858;2023-01-15T18:08:53;2.20;99.90
16823;DHT22;8528;49.976;11.858;2023-01-15T18:11:21;2.20;99.90
16823;DHT22;8528;49.976;11.858;2023-01-15T18:13:48;2.20;99.90
16823;DHT22;8528;49.976;11.858;2023-01-15T18:16:15;2.20;99.90
16823;DHT22;8528;49.976;11.858;2023-01-15T18:18:42;2.20;99.90
16823;DHT22;8528;49.976;11.858;2023-01-15T18:21:09;2.10;99.90
16823;DHT22;8528;49.976;11.858;2023-01-15T18:23:36;2.20;99.90
16823;DHT22;8528;49.976;11.858;2023-01-15T18:26:06;2.20;99.90
16823;DHT22;8528;49.976;11.858;2023-01-15T18:28:35;2.20;99.90
16823;DHT22;8528;49.976;11.858;2023-01-15T18:31:04;2.20;99.90
16823;DHT22;8528;49.976;11.858;2023-01-15T18:33:32;2.20;99.90
16823;DHT22;8528;49.976;11.858;2023-01-15T18:36:08;2.20;99.90
16823;DHT22;8528;49.976;11.858;2023-01-15T18:38:36;2.20;99.90
16823;DHT22;8528;49.976;11.858;2023-01-15T18:41:15;2.20;99.90
16823;DHT22;8528;49.976;11.858;2023-01-15T18:44:20;2.20;99.90
16823;DHT22;8528;49.976;11.858;2023-01-15T18:47:10;2.20;99.90
16823;DHT22;8528;49.976;11.858;2023-01-15T18:49:42;2.20;99.90